createdAt,value
2019-05-26T00:01:28.110Z,3.37
2019-05-26T00:03:56.599Z,3.07
2019-05-26T00:06:25.052Z,3.30
2019-05-26T00:08:53.596Z,2.93
2019-05-26T00:11:22.042Z,3.77
2019-05-26T00:13:50.501Z,3.80
2019-05-26T00:16:18.984Z,4.23
2019-05-26T00:18:47.433Z,4.07
2019-05-26T00:21:15.902Z,3.63
2019-05-26T00:23:44.386Z,4.20
2019-05-26T00:26:12.868Z,4.70
2019-05-26T00:28:41.308Z,4.17
2019-05-26T00:31:09.778Z,4.83
2019-05-26T00:33:38.245Z,5.23
2019-05-26T00:36:06.689Z,5.00
2019-05-26T00:38:35.234Z,3.63
2019-05-26T00:41:03.746Z,4.57
2019-05-26T00:43:32.219Z,4.30
2019-05-26T00:46:00.779Z,3.73
2019-05-26T00:48:29.328Z,3.87
2019-05-26T00:50:57.928Z,4.60
2019-05-26T00:53:26.459Z,3.87
2019-05-26T00:55:54.902Z,4.43
2019-05-26T00:58:23.412Z,4.50
2019-05-26T01:00:51.882Z,4.60
2019-05-26T01:03:20.348Z,4.47
2019-05-26T01:05:48.864Z,4.43
2019-05-26T01:08:17.442Z,4.87
2019-05-26T01:10:45.925Z,5.10
2019-05-26T01:13:14.365Z,6.23
2019-05-26T01:15:43.028Z,4.80
2019-05-26T01:18:11.533Z,6.13
2019-05-26T01:20:40.034Z,6.70
2019-05-26T01:23:08.616Z,6.30
2019-05-26T01:25:37.129Z,6.17
2019-05-26T01:28:05.703Z,7.47
2019-05-26T01:30:38.463Z,7.70
2019-05-26T01:33:07.133Z,7.67
2019-05-26T01:35:39.008Z,8.53
2019-05-26T01:38:22.494Z,6.60
2019-05-26T01:40:43.805Z,6.43
2019-05-26T01:43:13.057Z,5.33
2019-05-26T01:45:41.600Z,6.33
2019-05-26T01:48:10.271Z,5.80
2019-05-26T01:50:38.743Z,5.83
2019-05-26T01:53:10.716Z,5.17
2019-05-26T01:55:39.182Z,5.50
2019-05-26T01:58:07.617Z,7.37
2019-05-26T02:00:36.237Z,5.60
2019-05-26T02:03:05.342Z,6.10
2019-05-26T02:05:33.900Z,6.70
2019-05-26T02:08:02.411Z,6.77
2019-05-26T02:10:30.955Z,8.20
2019-05-26T02:12:59.478Z,6.23
2019-05-26T02:15:28.563Z,7.40
2019-05-26T02:17:57.114Z,7.37
2019-05-26T02:20:25.941Z,7.00
2019-05-26T02:22:54.408Z,7.77
2019-05-26T02:25:23.394Z,8.10
2019-05-26T02:27:51.871Z,9.17
2019-05-26T02:30:20.692Z,9.03
2019-05-26T02:32:49.225Z,8.20
2019-05-26T02:35:17.943Z,7.07
2019-05-26T02:37:46.447Z,8.17
2019-05-26T02:40:16.936Z,8.47
2019-05-26T02:42:45.457Z,8.30
2019-05-26T02:45:19.514Z,7.80
2019-05-26T02:47:47.945Z,7.67
2019-05-26T02:50:17.647Z,8.17
2019-05-26T02:52:46.244Z,7.20
2019-05-26T02:55:16.322Z,9.93
2019-05-26T02:57:44.875Z,7.77
2019-05-26T03:00:15.100Z,7.70
2019-05-26T03:02:43.712Z,7.80
2019-05-26T03:05:13.223Z,9.33
2019-05-26T03:07:43.658Z,8.73
2019-05-26T03:10:14.089Z,8.40
2019-05-26T03:12:43.980Z,9.23
2019-05-26T03:15:14.247Z,9.13
2019-05-26T03:17:43.365Z,8.33
2019-05-26T03:20:15.177Z,9.33
2019-05-26T03:22:44.683Z,10.47
2019-05-26T03:25:13.590Z,9.03
2019-05-26T03:27:42.136Z,8.17
2019-05-26T03:30:10.847Z,8.27
2019-05-26T03:32:39.569Z,7.77
2019-05-26T03:35:09.802Z,10.33
2019-05-26T03:37:38.439Z,8.27
2019-05-26T03:40:08.896Z,7.37
2019-05-26T03:42:37.417Z,7.80
2019-05-26T03:45:07.780Z,8.37
2019-05-26T03:47:36.426Z,8.10
2019-05-26T03:50:09.116Z,8.50
2019-05-26T03:52:37.588Z,7.87
2019-05-26T03:55:07.382Z,8.23
2019-05-26T03:57:35.891Z,8.17
2019-05-26T04:00:08.943Z,7.20
2019-05-26T04:02:37.573Z,7.50
2019-05-26T04:05:09.089Z,7.43
2019-05-26T04:07:37.632Z,7.27
2019-05-26T04:10:06.864Z,7.43
2019-05-26T04:12:36.559Z,7.17
2019-05-26T04:15:06.767Z,7.90
2019-05-26T04:17:35.333Z,9.27
2019-05-26T04:20:05.873Z,8.87
2019-05-26T04:22:34.353Z,8.53
2019-05-26T04:25:03.077Z,8.20
2019-05-26T04:27:31.518Z,8.83
2019-05-26T04:29:59.986Z,8.43
2019-05-26T04:32:28.430Z,8.80
2019-05-26T04:34:56.965Z,8.13
2019-05-26T04:37:25.427Z,8.33
2019-05-26T04:39:53.966Z,9.23
2019-05-26T04:42:22.416Z,8.07
2019-05-26T04:44:50.967Z,9.60
2019-05-26T04:47:19.416Z,10.20
2019-05-26T04:49:47.929Z,10.33
2019-05-26T04:52:16.472Z,9.70
2019-05-26T04:54:45.008Z,9.20
2019-05-26T04:57:13.450Z,9.70
2019-05-26T04:59:41.930Z,9.03
2019-05-26T05:02:11.176Z,10.57
2019-05-26T05:04:39.653Z,9.13
2019-05-26T05:07:08.180Z,8.73
2019-05-26T05:09:36.671Z,8.00
2019-05-26T05:12:05.556Z,8.40
2019-05-26T05:14:34.067Z,8.77
2019-05-26T05:17:02.559Z,9.23
2019-05-26T05:19:31.028Z,7.67
2019-05-26T05:21:59.491Z,8.13
2019-05-26T05:24:28.206Z,9.37
2019-05-26T05:26:56.665Z,9.13
2019-05-26T05:29:25.110Z,8.50
2019-05-26T05:31:53.328Z,10.20
2019-05-26T05:34:21.779Z,7.93
2019-05-26T05:36:50.249Z,8.80
2019-05-26T05:39:18.691Z,8.87
2019-05-26T05:41:47.150Z,8.03
2019-05-26T05:44:15.613Z,8.83
2019-05-26T05:46:44.086Z,8.70
2019-05-26T05:49:12.542Z,8.67
2019-05-26T05:51:40.746Z,9.07
2019-05-26T05:54:09.192Z,8.73
2019-05-26T05:56:37.669Z,8.57
2019-05-26T05:59:06.209Z,8.03
2019-05-26T06:01:34.677Z,7.97
2019-05-26T06:04:02.815Z,9.23
2019-05-26T06:06:31.251Z,10.30
2019-05-26T06:08:59.719Z,8.93
2019-05-26T06:11:28.267Z,9.47
2019-05-26T06:13:56.733Z,8.37
2019-05-26T06:16:25.225Z,8.10
2019-05-26T06:18:53.676Z,7.60
2019-05-26T06:21:22.247Z,8.17
2019-05-26T06:23:50.781Z,9.73
2019-05-26T06:26:19.410Z,8.33
2019-05-26T06:28:47.853Z,8.47
2019-05-26T06:31:16.323Z,9.47
2019-05-26T06:33:44.775Z,8.30
2019-05-26T06:36:13.241Z,8.10
2019-05-26T06:38:41.675Z,7.97
2019-05-26T06:41:10.181Z,8.33
2019-05-26T06:43:38.645Z,9.23
2019-05-26T06:46:07.120Z,8.33
2019-05-26T06:48:35.559Z,7.07
2019-05-26T06:51:04.118Z,7.57
2019-05-26T06:53:32.557Z,8.00
2019-05-26T06:56:01.033Z,7.87
2019-05-26T06:58:29.474Z,8.10
2019-05-26T07:00:58.050Z,7.93
2019-05-26T07:03:26.527Z,8.33
2019-05-26T07:05:55.009Z,7.57
2019-05-26T07:08:23.460Z,8.03
2019-05-26T07:10:51.940Z,7.17
2019-05-26T07:13:20.444Z,7.50
2019-05-26T07:15:48.920Z,9.17
2019-05-26T07:18:17.365Z,8.63
2019-05-26T07:20:45.837Z,7.07
2019-05-26T07:23:14.307Z,6.23
2019-05-26T07:25:42.789Z,5.77
2019-05-26T07:28:11.234Z,7.13
2019-05-26T07:30:39.709Z,6.00
2019-05-26T07:33:08.148Z,6.60
2019-05-26T07:35:36.634Z,7.10
2019-05-26T07:38:05.297Z,6.90
2019-05-26T07:40:33.793Z,7.03
2019-05-26T07:43:02.281Z,5.93
2019-05-26T07:45:30.792Z,5.73
2019-05-26T07:47:59.244Z,6.07
2019-05-26T07:50:27.724Z,5.77
2019-05-26T07:52:56.212Z,6.27
2019-05-26T07:55:24.783Z,5.83
2019-05-26T07:57:53.219Z,6.27
2019-05-26T08:00:21.946Z,6.57
2019-05-26T08:02:50.432Z,5.60
2019-05-26T08:05:19.026Z,4.93
2019-05-26T08:07:47.559Z,6.20
2019-05-26T08:10:16.337Z,5.67
2019-05-26T08:12:44.801Z,5.00
2019-05-26T08:15:13.890Z,5.80
2019-05-26T08:17:42.357Z,4.43
2019-05-26T08:20:11.809Z,4.47
2019-05-26T08:22:40.348Z,4.93
2019-05-26T08:25:09.439Z,5.67
2019-05-26T08:27:37.928Z,3.80
2019-05-26T08:30:08.146Z,3.67
2019-05-26T08:32:36.652Z,4.07
2019-05-26T08:35:06.972Z,4.70
2019-05-26T08:37:35.423Z,4.20
2019-05-26T08:40:18.187Z,4.07
2019-05-26T08:42:48.070Z,3.50
2019-05-26T08:45:20.834Z,3.23
2019-05-26T08:47:47.313Z,2.97
2019-05-26T08:50:16.121Z,3.37
2019-05-26T08:52:44.632Z,3.10
2019-05-26T08:55:13.254Z,3.10
2019-05-26T08:57:41.700Z,3.00
2019-05-26T09:00:11.211Z,4.17
2019-05-26T09:02:39.658Z,3.90
2019-05-26T09:05:08.560Z,2.90
2019-05-26T09:07:37.018Z,3.93
2019-05-26T09:10:06.333Z,2.67
2019-05-26T09:12:34.774Z,3.40
2019-05-26T09:15:04.388Z,3.43
2019-05-26T09:17:32.905Z,2.70
2019-05-26T09:20:01.378Z,2.70
2019-05-26T09:22:29.846Z,2.57
2019-05-26T09:24:58.290Z,2.97
2019-05-26T09:27:26.763Z,2.70
2019-05-26T09:29:55.220Z,3.10
2019-05-26T09:32:23.703Z,2.47
2019-05-26T09:34:52.172Z,2.20
2019-05-26T09:37:20.642Z,4.13
2019-05-26T09:39:49.093Z,2.03
2019-05-26T09:42:17.565Z,2.70
2019-05-26T09:44:46.047Z,2.10
2019-05-26T09:47:14.524Z,2.50
2019-05-26T09:49:42.983Z,2.07
2019-05-26T09:52:11.539Z,2.10
2019-05-26T09:54:40.005Z,2.13
2019-05-26T09:57:08.523Z,1.90
2019-05-26T09:59:37.156Z,1.63
2019-05-26T10:02:06.163Z,1.70
2019-05-26T10:04:34.680Z,1.70
2019-05-26T10:07:03.176Z,1.90
2019-05-26T10:09:31.667Z,2.07
2019-05-26T10:12:00.126Z,1.70
2019-05-26T10:14:28.632Z,1.93
2019-05-26T10:16:57.107Z,2.87
2019-05-26T10:19:25.559Z,1.80
2019-05-26T10:21:54.031Z,2.23
2019-05-26T10:24:22.483Z,1.67
2019-05-26T10:26:50.952Z,2.83
2019-05-26T10:29:19.396Z,2.00
2019-05-26T10:31:47.888Z,2.03
2019-05-26T10:34:16.393Z,2.00
2019-05-26T10:36:44.880Z,2.10
2019-05-26T10:39:13.327Z,1.80
2019-05-26T10:41:41.782Z,3.97
2019-05-26T10:44:10.475Z,1.80
2019-05-26T10:46:38.982Z,1.97
2019-05-26T10:49:07.607Z,2.70
2019-05-26T10:51:36.125Z,2.27
2019-05-26T10:54:04.809Z,2.00
2019-05-26T10:56:33.296Z,1.87
2019-05-26T10:59:01.862Z,2.10
2019-05-26T11:01:30.401Z,1.90
2019-05-26T11:03:58.932Z,1.90
2019-05-26T11:06:27.466Z,1.73
2019-05-26T11:08:55.921Z,1.80
2019-05-26T11:11:24.396Z,2.30
2019-05-26T11:14:02.333Z,2.63
2019-05-26T11:16:23.034Z,2.23
2019-05-26T11:18:51.476Z,2.57
2019-05-26T11:21:19.954Z,2.70
2019-05-26T11:23:48.392Z,1.90
2019-05-26T11:26:16.866Z,2.23
2019-05-26T11:28:45.423Z,2.40
2019-05-26T11:31:13.862Z,2.40
2019-05-26T11:33:42.454Z,2.20
2019-05-26T11:36:11.095Z,2.53
2019-05-26T11:38:39.635Z,2.60
2019-05-26T11:41:08.166Z,1.80
2019-05-26T11:43:36.601Z,1.80
2019-05-26T11:46:05.080Z,1.90
2019-05-26T11:48:33.561Z,2.00
2019-05-26T11:51:02.647Z,2.30
2019-05-26T11:53:31.125Z,2.30
2019-05-26T11:55:59.662Z,7.30
2019-05-26T11:58:28.129Z,2.77
2019-05-26T12:00:56.612Z,2.33
2019-05-26T12:03:25.080Z,2.40
2019-05-26T12:05:53.623Z,2.20
2019-05-26T12:08:22.068Z,2.33
2019-05-26T12:10:50.545Z,3.00
2019-05-26T12:13:19.190Z,2.40
2019-05-26T12:15:47.630Z,2.10
2019-05-26T12:18:16.100Z,2.07
2019-05-26T12:20:44.700Z,2.50
2019-05-26T12:23:13.232Z,2.63
2019-05-26T12:25:42.236Z,2.07
2019-05-26T12:28:10.716Z,1.70
2019-05-26T12:30:39.256Z,2.07
2019-05-26T12:33:07.767Z,1.50
2019-05-26T12:35:46.120Z,2.23
2019-05-26T12:38:15.227Z,1.73
2019-05-26T12:40:43.968Z,2.00
2019-05-26T12:43:12.436Z,2.57
2019-05-26T12:45:40.953Z,1.60
2019-05-26T12:48:09.519Z,1.60
2019-05-26T12:50:38.374Z,1.97
2019-05-26T12:53:07.985Z,1.80
2019-05-26T12:55:38.029Z,1.57
2019-05-26T12:58:06.650Z,1.50
2019-05-26T13:00:48.338Z,1.63
2019-05-26T13:03:06.592Z,1.30
2019-05-26T13:05:35.046Z,1.30
2019-05-26T13:08:03.601Z,1.70
2019-05-26T13:10:32.150Z,1.70
2019-05-26T13:13:00.600Z,1.77
2019-05-26T13:15:29.032Z,1.60
2019-05-26T13:17:57.510Z,1.50
2019-05-26T13:20:26.601Z,1.70
2019-05-26T13:22:55.082Z,1.50
2019-05-26T13:25:23.820Z,5.00
2019-05-26T13:27:52.379Z,1.40
2019-05-26T13:30:23.621Z,1.50
2019-05-26T13:32:52.088Z,1.30
2019-05-26T13:35:21.604Z,1.30
2019-05-26T13:37:50.124Z,1.73
2019-05-26T13:40:19.736Z,2.10
2019-05-26T13:42:48.305Z,2.13
2019-05-26T13:45:22.751Z,1.50
2019-05-26T13:47:47.349Z,1.50
2019-05-26T13:50:16.574Z,1.30
2019-05-26T13:52:45.012Z,1.53
2019-05-26T13:55:14.427Z,1.80
2019-05-26T13:57:42.874Z,1.30
2019-05-26T14:00:14.208Z,1.37
2019-05-26T14:02:42.924Z,1.30
2019-05-26T14:05:11.832Z,1.30
2019-05-26T14:07:40.296Z,1.20
2019-05-26T14:10:09.123Z,1.50
2019-05-26T14:12:37.722Z,1.50
2019-05-26T14:15:07.962Z,1.50
2019-05-26T14:17:38.096Z,2.07
2019-05-26T14:20:11.073Z,1.40
2019-05-26T14:22:39.666Z,1.30
2019-05-26T14:25:08.517Z,1.50
2019-05-26T14:27:36.961Z,2.10
2019-05-26T14:30:06.719Z,1.43
2019-05-26T14:32:35.231Z,1.20
2019-05-26T14:35:07.463Z,1.97
2019-05-26T14:37:36.113Z,1.40
2019-05-26T14:40:06.891Z,1.40
2019-05-26T14:42:35.365Z,1.40
2019-05-26T14:45:05.347Z,1.50
2019-05-26T14:47:33.829Z,1.30
2019-05-26T14:50:02.371Z,1.60
2019-05-26T14:52:30.849Z,1.40
2019-05-26T14:54:59.378Z,1.30
2019-05-26T14:57:30.929Z,1.43
2019-05-26T14:59:58.020Z,1.30
2019-05-26T15:02:26.471Z,1.10
2019-05-26T15:04:55.011Z,1.33
2019-05-26T15:07:23.547Z,2.13
2019-05-26T15:09:52.026Z,1.20
2019-05-26T15:12:20.459Z,1.30
2019-05-26T15:14:48.938Z,1.37
2019-05-26T15:17:17.416Z,1.20
2019-05-26T15:19:45.857Z,1.13
2019-05-26T15:22:14.475Z,1.27
2019-05-26T15:24:43.014Z,1.10
2019-05-26T15:27:11.524Z,1.90
2019-05-26T15:29:39.982Z,1.77
2019-05-26T15:32:08.425Z,1.00
2019-05-26T15:34:36.901Z,1.30
2019-05-26T15:37:05.612Z,1.40
2019-05-26T15:39:34.173Z,1.40
2019-05-26T15:42:02.618Z,1.37
2019-05-26T15:44:31.100Z,1.10
2019-05-26T15:46:59.547Z,1.73
2019-05-26T15:49:28.024Z,1.60
2019-05-26T15:51:56.172Z,1.00
2019-05-26T15:54:24.627Z,1.30
2019-05-26T15:56:55.618Z,1.33
2019-05-26T15:59:24.069Z,1.53
2019-05-26T16:01:52.544Z,1.40
2019-05-26T16:04:20.990Z,1.30
2019-05-26T16:06:49.490Z,1.13
2019-05-26T16:09:20.042Z,1.10
2019-05-26T16:11:48.560Z,1.10
2019-05-26T16:14:19.175Z,1.13
2019-05-26T16:16:51.174Z,1.30
2019-05-26T16:19:17.904Z,1.30
2019-05-26T16:21:46.348Z,1.20
2019-05-26T16:24:14.844Z,1.10
2019-05-26T16:26:43.299Z,2.10
2019-05-26T16:29:11.856Z,1.17
2019-05-26T16:31:40.374Z,1.30
2019-05-26T16:34:08.908Z,1.17
2019-05-26T16:36:37.350Z,1.20
2019-05-26T16:39:07.029Z,1.00
2019-05-26T16:41:35.490Z,1.10
2019-05-26T16:44:04.196Z,1.00
2019-05-26T16:46:32.748Z,1.50
2019-05-26T16:49:01.206Z,1.93
2019-05-26T16:51:29.672Z,1.37
2019-05-26T16:53:58.119Z,1.20
2019-05-26T16:56:26.585Z,1.00
2019-05-26T16:58:55.034Z,0.90
2019-05-26T17:01:23.572Z,1.10
2019-05-26T17:03:52.026Z,1.00
2019-05-26T17:06:20.493Z,0.90
2019-05-26T17:08:48.937Z,1.30
2019-05-26T17:11:17.405Z,0.90
2019-05-26T17:13:45.842Z,1.00
2019-05-26T17:16:14.341Z,1.10
2019-05-26T17:18:42.803Z,1.33
2019-05-26T17:21:11.323Z,1.30
2019-05-26T17:23:39.776Z,1.20
2019-05-26T17:26:08.320Z,1.30
2019-05-26T17:28:36.826Z,1.00
2019-05-26T17:31:05.863Z,1.30
2019-05-26T17:33:36.823Z,1.10
2019-05-26T17:36:05.100Z,1.40
2019-05-26T17:38:33.540Z,1.17
2019-05-26T17:41:02.005Z,1.90
2019-05-26T17:43:30.442Z,1.33
2019-05-26T17:45:58.916Z,1.10
2019-05-26T17:48:27.434Z,1.33
2019-05-26T17:50:55.986Z,1.37
2019-05-26T17:53:24.445Z,1.63
2019-05-26T17:55:52.985Z,1.50
2019-05-26T17:58:21.427Z,1.50
2019-05-26T18:00:50.412Z,1.57
2019-05-26T18:03:19.336Z,1.57
2019-05-26T18:05:47.848Z,1.63
2019-05-26T18:08:16.332Z,1.70
2019-05-26T18:10:44.942Z,1.30
2019-05-26T18:13:13.405Z,1.50
2019-05-26T18:15:41.933Z,2.13
2019-05-26T18:18:10.404Z,1.50
2019-05-26T18:20:38.921Z,5.90
2019-05-26T18:23:07.397Z,1.83
2019-05-26T18:25:35.857Z,1.60
2019-05-26T18:28:04.538Z,1.80
2019-05-26T18:30:33.081Z,1.50
2019-05-26T18:33:01.622Z,1.63
2019-05-26T18:35:30.060Z,1.70
2019-05-26T18:37:58.534Z,1.60
2019-05-26T18:40:27.049Z,1.60
2019-05-26T18:42:55.901Z,1.80
2019-05-26T18:45:24.339Z,1.63
2019-05-26T18:48:02.321Z,1.60
2019-05-26T18:50:22.975Z,1.50
2019-05-26T18:52:51.493Z,1.93
2019-05-26T18:55:20.006Z,1.80
2019-05-26T18:57:48.492Z,1.63
2019-05-26T19:00:17.888Z,1.60
2019-05-26T19:02:46.424Z,1.90
2019-05-26T19:05:15.430Z,1.80
2019-05-26T19:07:43.972Z,1.40
2019-05-26T19:10:14.736Z,1.67
2019-05-26T19:12:43.335Z,1.70
2019-05-26T19:15:12.236Z,1.63
2019-05-26T19:17:40.707Z,1.70
2019-05-26T19:20:30.009Z,2.63
2019-05-26T19:22:58.479Z,1.90
2019-05-26T19:25:27.196Z,1.77
2019-05-26T19:27:55.679Z,2.07
2019-05-26T19:30:24.261Z,1.90
2019-05-26T19:32:52.741Z,2.20
2019-05-26T19:35:21.328Z,1.83
2019-05-26T19:37:49.828Z,2.00
2019-05-26T19:40:19.232Z,1.80
2019-05-26T19:42:47.691Z,1.80
2019-05-26T19:45:16.236Z,1.90
2019-05-26T19:47:44.684Z,1.90
2019-05-26T19:50:13.318Z,1.80
2019-05-26T19:52:41.835Z,2.17
2019-05-26T19:55:10.948Z,4.03
2019-05-26T19:57:39.463Z,1.90
2019-05-26T20:00:11.908Z,2.77
2019-05-26T20:02:40.577Z,2.83
2019-05-26T20:05:09.587Z,2.50
2019-05-26T20:07:38.028Z,2.40
2019-05-26T20:10:10.454Z,2.27
2019-05-26T20:12:38.936Z,2.03
2019-05-26T20:15:09.384Z,1.90
2019-05-26T20:17:38.036Z,2.10
2019-05-26T20:20:08.152Z,1.87
2019-05-26T20:22:36.596Z,2.30
2019-05-26T20:25:09.554Z,2.00
2019-05-26T20:27:38.415Z,1.80
2019-05-26T20:30:08.705Z,2.13
2019-05-26T20:32:37.217Z,1.83
2019-05-26T20:35:07.317Z,2.13
2019-05-26T20:37:35.845Z,2.30
2019-05-26T20:40:05.349Z,2.00
2019-05-26T20:42:33.796Z,1.97
2019-05-26T20:45:02.473Z,2.40
2019-05-26T20:47:30.979Z,2.10
2019-05-26T20:49:59.556Z,1.77
2019-05-26T20:52:28.004Z,2.27
2019-05-26T20:54:56.476Z,1.87
2019-05-26T20:57:24.935Z,1.83
2019-05-26T20:59:53.401Z,1.93
2019-05-26T21:02:21.842Z,2.00
2019-05-26T21:04:50.310Z,2.00
2019-05-26T21:07:18.753Z,2.17
2019-05-26T21:09:47.229Z,1.83
2019-05-26T21:12:15.666Z,2.13
2019-05-26T21:14:44.127Z,2.00
2019-05-26T21:17:12.598Z,2.17
2019-05-26T21:19:41.056Z,2.03
2019-05-26T21:22:09.513Z,2.57
2019-05-26T21:24:37.954Z,2.50
2019-05-26T21:27:06.598Z,2.53
2019-05-26T21:29:35.226Z,2.70
2019-05-26T21:32:03.761Z,2.40
2019-05-26T21:34:32.280Z,3.20
2019-05-26T21:37:00.760Z,2.60
2019-05-26T21:39:29.209Z,4.87
2019-05-26T21:41:57.341Z,2.83
2019-05-26T21:44:25.819Z,3.43
2019-05-26T21:46:54.282Z,3.50
2019-05-26T21:49:22.737Z,2.87
2019-05-26T21:51:51.201Z,2.90
2019-05-26T21:54:19.646Z,2.80
2019-05-26T21:56:48.113Z,3.70
2019-05-26T21:59:16.560Z,2.50
2019-05-26T22:01:45.115Z,2.80
2019-05-26T22:04:13.615Z,2.87
2019-05-26T22:06:42.080Z,2.70
2019-05-26T22:09:10.591Z,2.77
2019-05-26T22:11:39.061Z,2.50
2019-05-26T22:14:07.565Z,3.40
2019-05-26T22:16:36.053Z,2.80
2019-05-26T22:19:04.738Z,3.40
2019-05-26T22:21:33.214Z,3.20
2019-05-26T22:24:01.697Z,2.90
2019-05-26T22:26:30.218Z,3.13
2019-05-26T22:28:58.652Z,3.50
2019-05-26T22:31:27.127Z,3.17
2019-05-26T22:33:55.579Z,2.57
2019-05-26T22:36:24.049Z,2.60
2019-05-26T22:38:52.489Z,2.47
2019-05-26T22:41:20.965Z,3.10
2019-05-26T22:43:49.397Z,2.60
2019-05-26T22:46:17.839Z,2.73
2019-05-26T22:48:46.317Z,3.20
2019-05-26T22:51:14.763Z,3.20
2019-05-26T22:53:43.230Z,3.00
2019-05-26T22:56:11.673Z,2.70
2019-05-26T22:58:40.145Z,2.60
2019-05-26T23:01:08.592Z,2.73
2019-05-26T23:03:37.043Z,3.37
2019-05-26T23:06:05.687Z,2.53
2019-05-26T23:08:34.388Z,2.80
2019-05-26T23:11:02.861Z,2.97
2019-05-26T23:13:31.307Z,2.83
2019-05-26T23:15:59.771Z,3.10
2019-05-26T23:18:28.238Z,2.83
2019-05-26T23:20:56.791Z,2.80
2019-05-26T23:23:25.320Z,3.27
2019-05-26T23:25:54.004Z,2.63
2019-05-26T23:28:22.441Z,2.73
2019-05-26T23:30:50.903Z,2.73
2019-05-26T23:33:19.378Z,2.53
2019-05-26T23:35:47.817Z,2.97
2019-05-26T23:38:16.297Z,3.03
2019-05-26T23:40:44.823Z,2.73
2019-05-26T23:43:13.258Z,3.00
2019-05-26T23:45:41.718Z,3.10
2019-05-26T23:48:10.161Z,2.93
2019-05-26T23:50:38.627Z,3.07
2019-05-26T23:53:07.095Z,3.37
2019-05-26T23:55:35.559Z,2.90
2019-05-26T23:58:04.158Z,4.50
